sensor_id;sensor_type;location;lat;lon;timestamp;P1;durP1;ratioP1;P2;durP2;ratioP2
77214;SDS011;66210;53.282;9.864;2024-02-04T00:00:54;9.82;;;1.90;;
77214;SDS011;66210;53.282;9.864;2024-02-04T00:03:21;13.48;;;1.98;;
77214;SDS011;66210;53.282;9.864;2024-02-04T00:05:50;13.55;;;2.10;;
77214;SDS011;66210;53.282;9.864;2024-02-04T00:08:17;15.57;;;2.35;;
77214;SDS011;66210;53.282;9.864;2024-02-04T00:10:44;12.07;;;2.47;;
77214;SDS011;66210;53.282;9.864;2024-02-04T00:13:11;11.00;;;2.25;;
77214;SDS011;66210;53.282;9.864;2024-02-04T00:15:37;11.60;;;2.20;;
77214;SDS011;66210;53.282;9.864;2024-02-04T00:18:04;10.13;;;2.22;;
77214;SDS011;66210;53.282;9.864;2024-02-04T00:20:31;13.70;;;2.30;;
77214;SDS011;66210;53.282;9.864;2024-02-04T00:22:59;20.52;;;2.63;;
77214;SDS011;66210;53.282;9.864;2024-02-04T00:25:26;10.43;;;2.25;;
77214;SDS011;66210;53.282;9.864;2024-02-04T00:27:53;16.55;;;2.22;;
77214;SDS011;66210;53.282;9.864;2024-02-04T00:30:19;10.35;;;1.77;;
77214;SDS011;66210;53.282;9.864;2024-02-04T00:32:46;16.85;;;2.42;;
77214;SDS011;66210;53.282;9.864;2024-02-04T00:35:13;9.70;;;2.25;;
77214;SDS011;66210;53.282;9.864;2024-02-04T00:37:40;8.95;;;1.67;;
77214;SDS011;66210;53.282;9.864;2024-02-04T00:40:06;6.75;;;2.20;;
77214;SDS011;66210;53.282;9.864;2024-02-04T00:42:34;14.63;;;2.40;;
77214;SDS011;66210;53.282;9.864;2024-02-04T00:45:01;12.07;;;2.10;;
77214;SDS011;66210;53.282;9.864;2024-02-04T00:47:28;13.85;;;2.08;;
77214;SDS011;66210;53.282;9.864;2024-02-04T00:49:54;7.03;;;1.33;;
77214;SDS011;66210;53.282;9.864;2024-02-04T00:52:21;21.48;;;2.40;;
77214;SDS011;66210;53.282;9.864;2024-02-04T00:54:48;11.07;;;1.73;;
77214;SDS011;66210;53.282;9.864;2024-02-04T00:57:15;14.75;;;2.67;;
77214;SDS011;66210;53.282;9.864;2024-02-04T00:59:41;7.38;;;1.90;;
77214;SDS011;66210;53.282;9.864;2024-02-04T01:02:08;10.07;;;1.95;;
77214;SDS011;66210;53.282;9.864;2024-02-04T01:04:35;14.30;;;1.95;;
77214;SDS011;66210;53.282;9.864;2024-02-04T01:07:02;10.48;;;2.10;;
77214;SDS011;66210;53.282;9.864;2024-02-04T01:09:28;6.97;;;1.63;;
77214;SDS011;66210;53.282;9.864;2024-02-04T01:11:56;9.48;;;2.22;;
77214;SDS011;66210;53.282;9.864;2024-02-04T01:14:23;13.20;;;2.40;;
77214;SDS011;66210;53.282;9.864;2024-02-04T01:16:50;11.88;;;2.67;;
77214;SDS011;66210;53.282;9.864;2024-02-04T01:19:16;5.75;;;1.75;;
77214;SDS011;66210;53.282;9.864;2024-02-04T01:21:43;9.63;;;2.10;;
77214;SDS011;66210;53.282;9.864;2024-02-04T01:24:11;10.38;;;2.40;;
77214;SDS011;66210;53.282;9.864;2024-02-04T01:26:38;7.53;;;2.58;;
77214;SDS011;66210;53.282;9.864;2024-02-04T01:29:05;12.98;;;2.30;;
77214;SDS011;66210;53.282;9.864;2024-02-04T01:31:32;11.40;;;1.98;;
77214;SDS011;66210;53.282;9.864;2024-02-04T01:33:59;13.65;;;2.05;;
77214;SDS011;66210;53.282;9.864;2024-02-04T01:36:26;11.98;;;1.70;;
77214;SDS011;66210;53.282;9.864;2024-02-04T01:38:53;7.10;;;1.65;;
77214;SDS011;66210;53.282;9.864;2024-02-04T01:41:19;8.63;;;1.80;;
77214;SDS011;66210;53.282;9.864;2024-02-04T01:43:46;9.52;;;1.73;;
77214;SDS011;66210;53.282;9.864;2024-02-04T01:46:13;7.45;;;1.90;;
77214;SDS011;66210;53.282;9.864;2024-02-04T01:48:40;17.40;;;2.30;;
77214;SDS011;66210;53.282;9.864;2024-02-04T01:51:07;15.60;;;2.97;;
77214;SDS011;66210;53.282;9.864;2024-02-04T01:53:34;11.15;;;2.58;;
77214;SDS011;66210;53.282;9.864;2024-02-04T01:56:05;8.55;;;2.05;;
77214;SDS011;66210;53.282;9.864;2024-02-04T01:58:34;14.50;;;2.22;;
77214;SDS011;66210;53.282;9.864;2024-02-04T02:01:01;14.20;;;2.83;;
77214;SDS011;66210;53.282;9.864;2024-02-04T02:03:30;12.43;;;2.20;;
77214;SDS011;66210;53.282;9.864;2024-02-04T02:05:58;9.80;;;2.17;;
77214;SDS011;66210;53.282;9.864;2024-02-04T02:08:26;8.48;;;2.00;;
77214;SDS011;66210;53.282;9.864;2024-02-04T02:13:50;11.55;;;2.17;;
77214;SDS011;66210;53.282;9.864;2024-02-04T02:18:52;11.43;;;2.25;;
77214;SDS011;66210;53.282;9.864;2024-02-04T02:21:31;8.50;;;2.15;;
77214;SDS011;66210;53.282;9.864;2024-02-04T02:24:16;12.48;;;1.92;;
77214;SDS011;66210;53.282;9.864;2024-02-04T02:26:49;11.18;;;2.58;;
77214;SDS011;66210;53.282;9.864;2024-02-04T02:29:17;12.57;;;2.53;;
77214;SDS011;66210;53.282;9.864;2024-02-04T02:31:44;10.70;;;2.35;;
77214;SDS011;66210;53.282;9.864;2024-02-04T02:34:15;13.18;;;2.50;;
77214;SDS011;66210;53.282;9.864;2024-02-04T02:37:07;9.43;;;2.10;;
77214;SDS011;66210;53.282;9.864;2024-02-04T02:42:15;14.05;;;2.33;;
77214;SDS011;66210;53.282;9.864;2024-02-04T02:44:43;9.30;;;2.08;;
77214;SDS011;66210;53.282;9.864;2024-02-04T02:47:12;12.32;;;2.40;;
77214;SDS011;66210;53.282;9.864;2024-02-04T02:49:40;9.68;;;2.25;;
77214;SDS011;66210;53.282;9.864;2024-02-04T02:52:07;8.20;;;1.77;;
77214;SDS011;66210;53.282;9.864;2024-02-04T02:54:34;9.50;;;2.15;;
77214;SDS011;66210;53.282;9.864;2024-02-04T02:57:01;5.90;;;2.03;;
77214;SDS011;66210;53.282;9.864;2024-02-04T02:59:28;13.40;;;2.65;;
77214;SDS011;66210;53.282;9.864;2024-02-04T03:01:55;8.45;;;2.03;;
77214;SDS011;66210;53.282;9.864;2024-02-04T03:04:21;14.20;;;2.42;;
77214;SDS011;66210;53.282;9.864;2024-02-04T03:06:48;17.38;;;2.25;;
77214;SDS011;66210;53.282;9.864;2024-02-04T03:09:15;9.82;;;2.33;;
77214;SDS011;66210;53.282;9.864;2024-02-04T03:11:42;9.80;;;2.33;;
77214;SDS011;66210;53.282;9.864;2024-02-04T03:14:09;11.10;;;2.50;;
77214;SDS011;66210;53.282;9.864;2024-02-04T03:16:36;9.10;;;2.17;;
77214;SDS011;66210;53.282;9.864;2024-02-04T03:19:04;16.15;;;2.90;;
77214;SDS011;66210;53.282;9.864;2024-02-04T03:21:32;11.63;;;2.53;;
77214;SDS011;66210;53.282;9.864;2024-02-04T03:23:59;8.02;;;2.85;;
77214;SDS011;66210;53.282;9.864;2024-02-04T03:26:26;11.23;;;2.38;;
77214;SDS011;66210;53.282;9.864;2024-02-04T03:28:53;14.88;;;2.65;;
77214;SDS011;66210;53.282;9.864;2024-02-04T03:31:23;9.25;;;2.83;;
77214;SDS011;66210;53.282;9.864;2024-02-04T03:33:50;6.18;;;2.58;;
77214;SDS011;66210;53.282;9.864;2024-02-04T03:36:21;8.18;;;2.25;;
77214;SDS011;66210;53.282;9.864;2024-02-04T03:38:50;10.05;;;2.60;;
77214;SDS011;66210;53.282;9.864;2024-02-04T03:41:17;10.55;;;2.78;;
77214;SDS011;66210;53.282;9.864;2024-02-04T03:43:44;12.32;;;3.53;;
77214;SDS011;66210;53.282;9.864;2024-02-04T03:46:14;9.45;;;2.97;;
77214;SDS011;66210;53.282;9.864;2024-02-04T03:48:42;7.25;;;2.88;;
77214;SDS011;66210;53.282;9.864;2024-02-04T03:51:16;12.98;;;3.08;;
77214;SDS011;66210;53.282;9.864;2024-02-04T03:53:44;9.82;;;3.33;;
77214;SDS011;66210;53.282;9.864;2024-02-04T03:56:11;11.93;;;3.63;;
77214;SDS011;66210;53.282;9.864;2024-02-04T03:58:38;10.27;;;3.40;;
77214;SDS011;66210;53.282;9.864;2024-02-04T04:01:09;13.85;;;3.03;;
77214;SDS011;66210;53.282;9.864;2024-02-04T04:03:40;11.48;;;3.72;;
77214;SDS011;66210;53.282;9.864;2024-02-04T04:06:08;15.07;;;4.13;;
77214;SDS011;66210;53.282;9.864;2024-02-04T04:08:36;10.98;;;3.70;;
77214;SDS011;66210;53.282;9.864;2024-02-04T04:11:04;15.07;;;4.18;;
77214;SDS011;66210;53.282;9.864;2024-02-04T04:13:31;13.40;;;3.63;;
77214;SDS011;66210;53.282;9.864;2024-02-04T04:18:28;11.32;;;4.43;;
77214;SDS011;66210;53.282;9.864;2024-02-04T04:20:55;8.10;;;3.72;;
77214;SDS011;66210;53.282;9.864;2024-02-04T04:23:22;10.85;;;3.70;;
77214;SDS011;66210;53.282;9.864;2024-02-04T04:25:49;10.13;;;3.83;;
77214;SDS011;66210;53.282;9.864;2024-02-04T04:28:16;7.55;;;3.85;;
77214;SDS011;66210;53.282;9.864;2024-02-04T04:30:42;12.35;;;4.05;;
77214;SDS011;66210;53.282;9.864;2024-02-04T04:33:09;15.45;;;4.35;;
77214;SDS011;66210;53.282;9.864;2024-02-04T04:35:37;15.07;;;4.57;;
77214;SDS011;66210;53.282;9.864;2024-02-04T04:38:05;13.95;;;4.82;;
77214;SDS011;66210;53.282;9.864;2024-02-04T04:40:31;14.38;;;5.43;;
77214;SDS011;66210;53.282;9.864;2024-02-04T04:42:58;14.77;;;5.20;;
77214;SDS011;66210;53.282;9.864;2024-02-04T04:45:25;11.35;;;4.55;;
77214;SDS011;66210;53.282;9.864;2024-02-04T04:47:52;8.13;;;3.58;;
77214;SDS011;66210;53.282;9.864;2024-02-04T04:50:19;14.48;;;5.15;;
77214;SDS011;66210;53.282;9.864;2024-02-04T04:52:45;14.50;;;4.60;;
77214;SDS011;66210;53.282;9.864;2024-02-04T04:55:12;14.18;;;4.75;;
77214;SDS011;66210;53.282;9.864;2024-02-04T04:57:39;15.38;;;4.97;;
77214;SDS011;66210;53.282;9.864;2024-02-04T05:00:06;13.93;;;4.63;;
77214;SDS011;66210;53.282;9.864;2024-02-04T05:02:36;10.40;;;4.60;;
77214;SDS011;66210;53.282;9.864;2024-02-04T05:05:03;13.05;;;4.63;;
77214;SDS011;66210;53.282;9.864;2024-02-04T05:07:30;14.30;;;4.47;;
77214;SDS011;66210;53.282;9.864;2024-02-04T05:09:57;10.77;;;4.30;;
77214;SDS011;66210;53.282;9.864;2024-02-04T05:12:25;10.50;;;3.90;;
77214;SDS011;66210;53.282;9.864;2024-02-04T05:14:52;12.43;;;4.50;;
77214;SDS011;66210;53.282;9.864;2024-02-04T05:17:19;11.00;;;4.30;;
77214;SDS011;66210;53.282;9.864;2024-02-04T05:19:45;11.88;;;4.20;;
77214;SDS011;66210;53.282;9.864;2024-02-04T05:22:12;12.98;;;4.53;;
77214;SDS011;66210;53.282;9.864;2024-02-04T05:24:40;12.00;;;3.50;;
77214;SDS011;66210;53.282;9.864;2024-02-04T05:27:07;13.63;;;3.47;;
77214;SDS011;66210;53.282;9.864;2024-02-04T05:29:34;10.55;;;3.70;;
77214;SDS011;66210;53.282;9.864;2024-02-04T05:32:01;18.30;;;3.90;;
77214;SDS011;66210;53.282;9.864;2024-02-04T05:34:28;16.35;;;4.53;;
77214;SDS011;66210;53.282;9.864;2024-02-04T05:36:57;10.68;;;3.65;;
77214;SDS011;66210;53.282;9.864;2024-02-04T05:39:24;10.20;;;2.88;;
77214;SDS011;66210;53.282;9.864;2024-02-04T05:41:50;10.98;;;2.92;;
77214;SDS011;66210;53.282;9.864;2024-02-04T05:44:17;10.35;;;3.10;;
77214;SDS011;66210;53.282;9.864;2024-02-04T05:46:44;8.73;;;2.65;;
77214;SDS011;66210;53.282;9.864;2024-02-04T05:49:11;9.50;;;2.85;;
77214;SDS011;66210;53.282;9.864;2024-02-04T05:51:38;17.00;;;3.30;;
77214;SDS011;66210;53.282;9.864;2024-02-04T05:54:08;12.45;;;2.55;;
77214;SDS011;66210;53.282;9.864;2024-02-04T05:56:35;11.65;;;3.30;;
77214;SDS011;66210;53.282;9.864;2024-02-04T05:59:02;12.10;;;2.30;;
77214;SDS011;66210;53.282;9.864;2024-02-04T06:01:29;7.38;;;2.88;;
77214;SDS011;66210;53.282;9.864;2024-02-04T06:03:55;10.55;;;2.22;;
77214;SDS011;66210;53.282;9.864;2024-02-04T06:06:22;16.80;;;2.60;;
77214;SDS011;66210;53.282;9.864;2024-02-04T06:08:49;11.25;;;2.72;;
77214;SDS011;66210;53.282;9.864;2024-02-04T06:11:16;17.27;;;2.67;;
77214;SDS011;66210;53.282;9.864;2024-02-04T06:13:43;12.55;;;2.20;;
77214;SDS011;66210;53.282;9.864;2024-02-04T06:16:11;7.65;;;2.25;;
77214;SDS011;66210;53.282;9.864;2024-02-04T06:18:40;15.77;;;2.80;;
77214;SDS011;66210;53.282;9.864;2024-02-04T06:21:07;12.77;;;2.92;;
77214;SDS011;66210;53.282;9.864;2024-02-04T06:23:34;5.88;;;1.75;;
77214;SDS011;66210;53.282;9.864;2024-02-04T06:26:02;14.75;;;2.88;;
77214;SDS011;66210;53.282;9.864;2024-02-04T06:28:29;4.68;;;2.08;;
77214;SDS011;66210;53.282;9.864;2024-02-04T06:30:56;6.32;;;2.00;;
77214;SDS011;66210;53.282;9.864;2024-02-04T06:33:23;9.43;;;1.98;;
77214;SDS011;66210;53.282;9.864;2024-02-04T06:35:51;12.35;;;2.75;;
77214;SDS011;66210;53.282;9.864;2024-02-04T06:38:18;9.45;;;1.95;;
77214;SDS011;66210;53.282;9.864;2024-02-04T06:40:45;9.90;;;2.30;;
77214;SDS011;66210;53.282;9.864;2024-02-04T06:43:12;9.63;;;1.88;;
77214;SDS011;66210;53.282;9.864;2024-02-04T06:45:39;7.22;;;1.52;;
77214;SDS011;66210;53.282;9.864;2024-02-04T06:48:06;7.43;;;2.03;;
77214;SDS011;66210;53.282;9.864;2024-02-04T06:50:34;7.30;;;1.77;;
77214;SDS011;66210;53.282;9.864;2024-02-04T06:53:01;11.38;;;2.10;;
77214;SDS011;66210;53.282;9.864;2024-02-04T06:55:27;5.45;;;1.70;;
77214;SDS011;66210;53.282;9.864;2024-02-04T06:57:54;14.80;;;2.38;;
77214;SDS011;66210;53.282;9.864;2024-02-04T07:00:21;5.50;;;1.52;;
77214;SDS011;66210;53.282;9.864;2024-02-04T07:02:48;7.53;;;1.98;;
77214;SDS011;66210;53.282;9.864;2024-02-04T07:05:15;9.63;;;1.55;;
77214;SDS011;66210;53.282;9.864;2024-02-04T07:07:42;9.80;;;1.92;;
77214;SDS011;66210;53.282;9.864;2024-02-04T07:10:09;11.50;;;1.70;;
77214;SDS011;66210;53.282;9.864;2024-02-04T07:12:36;12.38;;;2.08;;
77214;SDS011;66210;53.282;9.864;2024-02-04T07:15:03;11.60;;;2.10;;
77214;SDS011;66210;53.282;9.864;2024-02-04T07:17:30;22.33;;;3.10;;
77214;SDS011;66210;53.282;9.864;2024-02-04T07:19:57;5.88;;;1.67;;
77214;SDS011;66210;53.282;9.864;2024-02-04T07:22:24;9.50;;;1.83;;
77214;SDS011;66210;53.282;9.864;2024-02-04T07:24:51;7.88;;;1.75;;
77214;SDS011;66210;53.282;9.864;2024-02-04T07:27:18;8.30;;;2.03;;
77214;SDS011;66210;53.282;9.864;2024-02-04T07:29:45;5.68;;;1.40;;
77214;SDS011;66210;53.282;9.864;2024-02-04T07:32:13;4.38;;;1.75;;
77214;SDS011;66210;53.282;9.864;2024-02-04T07:34:41;11.90;;;1.88;;
77214;SDS011;66210;53.282;9.864;2024-02-04T07:37:08;7.35;;;1.60;;
77214;SDS011;66210;53.282;9.864;2024-02-04T07:39:35;11.75;;;2.67;;
77214;SDS011;66210;53.282;9.864;2024-02-04T07:42:02;11.02;;;2.22;;
77214;SDS011;66210;53.282;9.864;2024-02-04T07:44:29;10.98;;;2.10;;
77214;SDS011;66210;53.282;9.864;2024-02-04T07:46:56;15.60;;;2.55;;
77214;SDS011;66210;53.282;9.864;2024-02-04T07:49:23;6.70;;;1.52;;
77214;SDS011;66210;53.282;9.864;2024-02-04T07:51:50;8.73;;;1.70;;
77214;SDS011;66210;53.282;9.864;2024-02-04T07:54:17;14.20;;;2.15;;
77214;SDS011;66210;53.282;9.864;2024-02-04T07:56:44;9.02;;;1.83;;
77214;SDS011;66210;53.282;9.864;2024-02-04T07:59:10;5.95;;;1.70;;
77214;SDS011;66210;53.282;9.864;2024-02-04T08:01:37;6.13;;;1.80;;
77214;SDS011;66210;53.282;9.864;2024-02-04T08:04:04;9.85;;;2.42;;
77214;SDS011;66210;53.282;9.864;2024-02-04T08:06:34;7.47;;;2.40;;
77214;SDS011;66210;53.282;9.864;2024-02-04T08:09:01;10.45;;;2.83;;
77214;SDS011;66210;53.282;9.864;2024-02-04T08:11:28;15.32;;;2.22;;
77214;SDS011;66210;53.282;9.864;2024-02-04T08:13:55;14.27;;;2.28;;
77214;SDS011;66210;53.282;9.864;2024-02-04T08:16:22;7.45;;;2.08;;
77214;SDS011;66210;53.282;9.864;2024-02-04T08:18:49;12.00;;;2.83;;
77214;SDS011;66210;53.282;9.864;2024-02-04T08:21:16;9.45;;;2.38;;
77214;SDS011;66210;53.282;9.864;2024-02-04T08:23:43;13.15;;;3.03;;
77214;SDS011;66210;53.282;9.864;2024-02-04T08:26:11;10.82;;;2.42;;
77214;SDS011;66210;53.282;9.864;2024-02-04T08:28:37;9.63;;;2.47;;
77214;SDS011;66210;53.282;9.864;2024-02-04T08:31:04;10.38;;;2.63;;
77214;SDS011;66210;53.282;9.864;2024-02-04T08:33:32;7.72;;;1.90;;
77214;SDS011;66210;53.282;9.864;2024-02-04T08:35:58;8.95;;;2.33;;
77214;SDS011;66210;53.282;9.864;2024-02-04T08:38:25;9.43;;;2.45;;
77214;SDS011;66210;53.282;9.864;2024-02-04T08:40:52;17.02;;;3.55;;
77214;SDS011;66210;53.282;9.864;2024-02-04T08:43:19;10.38;;;2.75;;
77214;SDS011;66210;53.282;9.864;2024-02-04T08:45:46;9.27;;;3.00;;
77214;SDS011;66210;53.282;9.864;2024-02-04T08:48:13;13.60;;;3.28;;
77214;SDS011;66210;53.282;9.864;2024-02-04T08:50:39;10.98;;;2.67;;
77214;SDS011;66210;53.282;9.864;2024-02-04T08:53:06;10.93;;;3.22;;
77214;SDS011;66210;53.282;9.864;2024-02-04T08:55:33;10.48;;;2.40;;
77214;SDS011;66210;53.282;9.864;2024-02-04T08:57:59;14.85;;;2.90;;
77214;SDS011;66210;53.282;9.864;2024-02-04T09:00:26;9.43;;;2.92;;
77214;SDS011;66210;53.282;9.864;2024-02-04T09:02:53;7.82;;;2.67;;
77214;SDS011;66210;53.282;9.864;2024-02-04T09:05:20;11.10;;;2.88;;
77214;SDS011;66210;53.282;9.864;2024-02-04T09:07:47;11.15;;;3.05;;
77214;SDS011;66210;53.282;9.864;2024-02-04T09:10:14;14.90;;;3.08;;
77214;SDS011;66210;53.282;9.864;2024-02-04T09:12:41;6.10;;;2.72;;
77214;SDS011;66210;53.282;9.864;2024-02-04T09:15:09;7.95;;;2.90;;
77214;SDS011;66210;53.282;9.864;2024-02-04T09:17:36;8.80;;;2.38;;
77214;SDS011;66210;53.282;9.864;2024-02-04T09:20:03;7.53;;;2.50;;
77214;SDS011;66210;53.282;9.864;2024-02-04T09:22:31;10.88;;;2.90;;
77214;SDS011;66210;53.282;9.864;2024-02-04T09:24:58;16.27;;;2.75;;
77214;SDS011;66210;53.282;9.864;2024-02-04T09:27:25;11.48;;;2.50;;
77214;SDS011;66210;53.282;9.864;2024-02-04T09:29:52;10.75;;;2.65;;
77214;SDS011;66210;53.282;9.864;2024-02-04T09:32:21;8.45;;;2.38;;
77214;SDS011;66210;53.282;9.864;2024-02-04T09:34:49;13.57;;;2.45;;
77214;SDS011;66210;53.282;9.864;2024-02-04T09:37:16;13.23;;;2.92;;
77214;SDS011;66210;53.282;9.864;2024-02-04T09:39:43;13.40;;;2.60;;
77214;SDS011;66210;53.282;9.864;2024-02-04T09:42:11;10.93;;;2.22;;
77214;SDS011;66210;53.282;9.864;2024-02-04T09:44:50;8.35;;;2.67;;
77214;SDS011;66210;53.282;9.864;2024-02-04T09:47:16;10.88;;;2.00;;
77214;SDS011;66210;53.282;9.864;2024-02-04T09:49:44;7.32;;;2.70;;
77214;SDS011;66210;53.282;9.864;2024-02-04T09:52:11;14.57;;;2.67;;
77214;SDS011;66210;53.282;9.864;2024-02-04T09:54:43;11.57;;;2.97;;
77214;SDS011;66210;53.282;9.864;2024-02-04T09:57:12;11.65;;;2.22;;
77214;SDS011;66210;53.282;9.864;2024-02-04T09:59:41;7.40;;;2.17;;
77214;SDS011;66210;53.282;9.864;2024-02-04T10:02:09;14.27;;;2.58;;
77214;SDS011;66210;53.282;9.864;2024-02-04T10:04:36;8.10;;;2.25;;
77214;SDS011;66210;53.282;9.864;2024-02-04T10:07:04;12.82;;;2.45;;
77214;SDS011;66210;53.282;9.864;2024-02-04T10:09:31;7.30;;;2.05;;
77214;SDS011;66210;53.282;9.864;2024-02-04T10:11:58;13.93;;;2.90;;
77214;SDS011;66210;53.282;9.864;2024-02-04T10:14:25;10.60;;;1.95;;
77214;SDS011;66210;53.282;9.864;2024-02-04T10:16:52;13.60;;;2.70;;
77214;SDS011;66210;53.282;9.864;2024-02-04T10:19:19;15.43;;;2.50;;
77214;SDS011;66210;53.282;9.864;2024-02-04T10:21:46;11.52;;;2.60;;
77214;SDS011;66210;53.282;9.864;2024-02-04T10:24:24;13.38;;;2.63;;
77214;SDS011;66210;53.282;9.864;2024-02-04T10:26:51;12.05;;;1.92;;
77214;SDS011;66210;53.282;9.864;2024-02-04T10:29:18;15.77;;;2.45;;
77214;SDS011;66210;53.282;9.864;2024-02-04T10:31:46;11.30;;;1.80;;
77214;SDS011;66210;53.282;9.864;2024-02-04T10:34:12;12.52;;;2.17;;
77214;SDS011;66210;53.282;9.864;2024-02-04T10:36:40;11.45;;;2.65;;
77214;SDS011;66210;53.282;9.864;2024-02-04T10:39:07;8.25;;;2.00;;
77214;SDS011;66210;53.282;9.864;2024-02-04T10:41:33;9.82;;;2.70;;
77214;SDS011;66210;53.282;9.864;2024-02-04T10:44:01;12.25;;;2.42;;
77214;SDS011;66210;53.282;9.864;2024-02-04T10:46:30;16.27;;;3.58;;
77214;SDS011;66210;53.282;9.864;2024-02-04T10:49:03;14.77;;;2.20;;
77214;SDS011;66210;53.282;9.864;2024-02-04T10:51:34;11.35;;;2.22;;
77214;SDS011;66210;53.282;9.864;2024-02-04T10:54:03;12.90;;;2.72;;
77214;SDS011;66210;53.282;9.864;2024-02-04T10:56:42;14.15;;;2.38;;
77214;SDS011;66210;53.282;9.864;2024-02-04T10:59:10;12.32;;;2.83;;
77214;SDS011;66210;53.282;9.864;2024-02-04T11:01:40;11.15;;;2.20;;
77214;SDS011;66210;53.282;9.864;2024-02-04T11:04:10;12.48;;;3.22;;
77214;SDS011;66210;53.282;9.864;2024-02-04T11:06:40;9.93;;;2.40;;
77214;SDS011;66210;53.282;9.864;2024-02-04T11:09:08;12.25;;;2.25;;
77214;SDS011;66210;53.282;9.864;2024-02-04T11:11:36;8.13;;;2.05;;
77214;SDS011;66210;53.282;9.864;2024-02-04T11:14:04;8.02;;;2.17;;
77214;SDS011;66210;53.282;9.864;2024-02-04T11:19:52;8.60;;;2.38;;
77214;SDS011;66210;53.282;9.864;2024-02-04T11:28:02;10.88;;;2.33;;
77214;SDS011;66210;53.282;9.864;2024-02-04T11:30:33;11.00;;;2.50;;
77214;SDS011;66210;53.282;9.864;2024-02-04T11:33:03;12.65;;;2.70;;
77214;SDS011;66210;53.282;9.864;2024-02-04T11:35:31;7.20;;;1.83;;
77214;SDS011;66210;53.282;9.864;2024-02-04T11:37:59;15.60;;;2.45;;
77214;SDS011;66210;53.282;9.864;2024-02-04T11:40:36;12.73;;;3.00;;
77214;SDS011;66210;53.282;9.864;2024-02-04T11:43:10;9.38;;;1.90;;
77214;SDS011;66210;53.282;9.864;2024-02-04T11:45:42;12.25;;;2.40;;
77214;SDS011;66210;53.282;9.864;2024-02-04T11:48:10;12.90;;;2.70;;
77214;SDS011;66210;53.282;9.864;2024-02-04T11:50:38;8.68;;;2.20;;
77214;SDS011;66210;53.282;9.864;2024-02-04T11:53:06;14.95;;;3.13;;
77214;SDS011;66210;53.282;9.864;2024-02-04T11:55:35;16.67;;;2.67;;
77214;SDS011;66210;53.282;9.864;2024-02-04T11:58:06;10.63;;;2.70;;
77214;SDS011;66210;53.282;9.864;2024-02-04T12:00:33;8.95;;;2.20;;
77214;SDS011;66210;53.282;9.864;2024-02-04T12:03:01;12.68;;;2.15;;
77214;SDS011;66210;53.282;9.864;2024-02-04T12:05:35;7.68;;;2.10;;
77214;SDS011;66210;53.282;9.864;2024-02-04T12:08:03;11.05;;;2.20;;
77214;SDS011;66210;53.282;9.864;2024-02-04T12:10:32;17.10;;;2.58;;
77214;SDS011;66210;53.282;9.864;2024-02-04T12:13:02;17.65;;;2.47;;
77214;SDS011;66210;53.282;9.864;2024-02-04T12:15:30;13.15;;;2.22;;
77214;SDS011;66210;53.282;9.864;2024-02-04T12:18:06;13.43;;;2.17;;
77214;SDS011;66210;53.282;9.864;2024-02-04T12:20:37;7.03;;;1.85;;
77214;SDS011;66210;53.282;9.864;2024-02-04T12:23:05;16.20;;;2.42;;
77214;SDS011;66210;53.282;9.864;2024-02-04T12:25:33;12.80;;;2.30;;
77214;SDS011;66210;53.282;9.864;2024-02-04T12:28:00;9.55;;;2.30;;
77214;SDS011;66210;53.282;9.864;2024-02-04T12:30:29;8.10;;;1.90;;
77214;SDS011;66210;53.282;9.864;2024-02-04T12:32:57;12.48;;;2.22;;
77214;SDS011;66210;53.282;9.864;2024-02-04T12:35:28;8.75;;;2.05;;
77214;SDS011;66210;53.282;9.864;2024-02-04T12:37:56;12.77;;;2.50;;
77214;SDS011;66210;53.282;9.864;2024-02-04T12:40:30;15.52;;;2.38;;
77214;SDS011;66210;53.282;9.864;2024-02-04T12:45:31;8.27;;;2.15;;
77214;SDS011;66210;53.282;9.864;2024-02-04T12:47:58;12.82;;;2.10;;
77214;SDS011;66210;53.282;9.864;2024-02-04T12:50:25;12.85;;;2.15;;
77214;SDS011;66210;53.282;9.864;2024-02-04T12:53:05;13.90;;;2.70;;
77214;SDS011;66210;53.282;9.864;2024-02-04T12:55:33;9.48;;;1.77;;
77214;SDS011;66210;53.282;9.864;2024-02-04T12:58:02;13.43;;;2.00;;
77214;SDS011;66210;53.282;9.864;2024-02-04T13:00:30;13.30;;;2.42;;
77214;SDS011;66210;53.282;9.864;2024-02-04T13:02:59;8.25;;;2.13;;
77214;SDS011;66210;53.282;9.864;2024-02-04T13:05:29;6.05;;;1.70;;
77214;SDS011;66210;53.282;9.864;2024-02-04T13:07:57;9.02;;;1.95;;
77214;SDS011;66210;53.282;9.864;2024-02-04T13:10:29;11.77;;;2.40;;
77214;SDS011;66210;53.282;9.864;2024-02-04T13:13:01;11.30;;;1.80;;
77214;SDS011;66210;53.282;9.864;2024-02-04T13:15:29;13.43;;;2.22;;
77214;SDS011;66210;53.282;9.864;2024-02-04T13:17:57;9.63;;;2.65;;
77214;SDS011;66210;53.282;9.864;2024-02-04T13:20:23;12.88;;;2.30;;
77214;SDS011;66210;53.282;9.864;2024-02-04T13:22:53;11.50;;;2.42;;
77214;SDS011;66210;53.282;9.864;2024-02-04T13:25:23;9.63;;;2.53;;
77214;SDS011;66210;53.282;9.864;2024-02-04T13:27:51;5.57;;;1.45;;
77214;SDS011;66210;53.282;9.864;2024-02-04T13:30:18;6.90;;;1.90;;
77214;SDS011;66210;53.282;9.864;2024-02-04T13:32:46;7.57;;;2.47;;
77214;SDS011;66210;53.282;9.864;2024-02-04T13:35:13;5.35;;;1.38;;
77214;SDS011;66210;53.282;9.864;2024-02-04T13:37:46;9.13;;;1.85;;
77214;SDS011;66210;53.282;9.864;2024-02-04T13:40:14;13.20;;;2.40;;
77214;SDS011;66210;53.282;9.864;2024-02-04T13:42:42;7.82;;;2.05;;
77214;SDS011;66210;53.282;9.864;2024-02-04T13:45:10;11.50;;;2.42;;
77214;SDS011;66210;53.282;9.864;2024-02-04T13:47:40;9.63;;;2.08;;
77214;SDS011;66210;53.282;9.864;2024-02-04T13:50:08;5.03;;;1.80;;
77214;SDS011;66210;53.282;9.864;2024-02-04T13:52:36;9.95;;;2.00;;
77214;SDS011;66210;53.282;9.864;2024-02-04T13:55:03;7.72;;;1.88;;
77214;SDS011;66210;53.282;9.864;2024-02-04T13:57:36;9.52;;;2.47;;
77214;SDS011;66210;53.282;9.864;2024-02-04T14:00:03;8.10;;;1.90;;
77214;SDS011;66210;53.282;9.864;2024-02-04T14:02:32;7.78;;;2.08;;
77214;SDS011;66210;53.282;9.864;2024-02-04T14:04:59;11.82;;;2.20;;
77214;SDS011;66210;53.282;9.864;2024-02-04T14:07:27;6.40;;;1.83;;
77214;SDS011;66210;53.282;9.864;2024-02-04T14:09:54;11.10;;;2.28;;
77214;SDS011;66210;53.282;9.864;2024-02-04T14:12:21;7.35;;;2.17;;
77214;SDS011;66210;53.282;9.864;2024-02-04T14:14:47;7.18;;;1.95;;
77214;SDS011;66210;53.282;9.864;2024-02-04T14:17:14;8.20;;;1.90;;
77214;SDS011;66210;53.282;9.864;2024-02-04T14:19:41;12.85;;;2.10;;
77214;SDS011;66210;53.282;9.864;2024-02-04T14:22:08;6.88;;;1.75;;
77214;SDS011;66210;53.282;9.864;2024-02-04T14:24:35;10.23;;;2.50;;
77214;SDS011;66210;53.282;9.864;2024-02-04T14:27:02;6.35;;;1.88;;
77214;SDS011;66210;53.282;9.864;2024-02-04T14:29:29;5.63;;;1.85;;
77214;SDS011;66210;53.282;9.864;2024-02-04T14:31:56;11.55;;;1.67;;
77214;SDS011;66210;53.282;9.864;2024-02-04T14:34:24;6.82;;;1.90;;
77214;SDS011;66210;53.282;9.864;2024-02-04T14:36:51;8.20;;;2.42;;
77214;SDS011;66210;53.282;9.864;2024-02-04T14:39:19;12.60;;;2.25;;
77214;SDS011;66210;53.282;9.864;2024-02-04T14:41:45;4.78;;;2.28;;
77214;SDS011;66210;53.282;9.864;2024-02-04T14:44:12;6.97;;;1.77;;
77214;SDS011;66210;53.282;9.864;2024-02-04T14:46:39;10.52;;;1.77;;
77214;SDS011;66210;53.282;9.864;2024-02-04T14:49:06;7.07;;;2.00;;
77214;SDS011;66210;53.282;9.864;2024-02-04T14:51:33;10.05;;;2.25;;
77214;SDS011;66210;53.282;9.864;2024-02-04T14:54:01;10.00;;;1.80;;
77214;SDS011;66210;53.282;9.864;2024-02-04T14:56:28;10.80;;;1.90;;
77214;SDS011;66210;53.282;9.864;2024-02-04T14:58:55;6.63;;;1.88;;
77214;SDS011;66210;53.282;9.864;2024-02-04T15:01:22;7.53;;;2.17;;
77214;SDS011;66210;53.282;9.864;2024-02-04T15:03:49;5.60;;;1.70;;
77214;SDS011;66210;53.282;9.864;2024-02-04T15:06:16;11.13;;;2.15;;